Date,TemperatureHighF,TemperatureAvgF,TemperatureLowF,DewpointHighF,DewpointAvgF,DewpointLowF,HumidityHigh,HumidityAvg,HumidityLow,PressureMaxIn,PressureMinIn,WindSpeedMaxMPH,WindSpeedAvgMPH,GustSpeedMaxMPH,PrecipitationSumIn
2013-11-1,80.8,74.8,70.6,72.6,69.9,67.3,95,85,69,29.97,29.73,19,4,20,0.11
2013-11-2,71.8,64.6,54.0,70.5,62.3,51.7,97,92,76,29.92,29.70,11,0,11,0.79
2013-11-3,64.3,54.1,46.5,51.9,47.4,44.5,95,80,51,30.29,29.92,7,0,9,0.00
2013-11-4,62.9,52.5,44.7,48.5,43.8,39.8,93,73,53,30.45,30.29,12,0,12,0.00
2013-11-5,63.9,54.4,44.2,60.6,51.4,39.7,95,90,77,30.43,30.32,7,0,7,0.01
2013-11-6,72.8,64.5,56.2,65.7,60.7,54.2,96,88,75,30.32,30.08,11,1,11,0.12
2013-11-7,73.2,66.6,58.5,68.4,64.6,52.0,100,94,80,30.08,29.90,9,0,9,0.28
2013-11-8,58.9,50.8,40.4,52.6,40.2,35.3,93,69,44,30.29,30.02,12,0,12,0.00
2013-11-9,62.9,50.8,37.7,52.7,45.3,36.1,94,83,59,30.34,30.20,7,0,7,0.00
2013-11-10,68.0,57.2,48.7,55.8,51.4,46.8,96,83,52,30.23,30.10,7,0,7,0.00
2013-11-11,60.7,52.2,45.3,48.2,43.2,37.0,95,73,48,30.29,30.15,10,0,10,0.00
2013-11-12,68.5,53.7,39.6,52.2,44.6,31.0,97,74,49,30.34,29.99,18,0,20,0.00
2013-11-13,47.9,38.7,30.2,33.3,28.9,24.7,91,70,42,30.49,30.34,19,0,19,0.00
2013-11-14,58.4,41.7,28.4,44.8,33.9,26.4,93,77,39,30.50,30.33,7,0,7,0.00
2013-11-15,63.8,54.5,39.8,60.8,52.0,38.2,97,92,81,30.33,30.15,12,0,12,0.00
2013-11-16,71.7,63.6,56.7,65.5,61.0,55.3,100,92,75,30.21,30.14,10,1,10,0.00
2013-11-17,72.4,63.6,53.7,69.4,62.4,52.7,100,96,88,30.17,29.97,9,0,9,0.02
2013-11-18,80.8,71.6,61.5,72.9,68.0,50.1,100,89,66,29.97,29.78,6,1,13,0.01
2013-11-19,61.8,53.8,46.7,51.3,39.7,34.5,79,60,40,30.22,29.89,14,0,14,0.00
2013-11-20,59.2,51.2,44.2,48.4,42.8,36.1,82,73,61,30.34,30.20,16,0,16,0.00
2013-11-21,69.7,59.1,50.3,63.3,54.7,46.3,95,86,76,30.38,30.31,10,0,10,0.00
2013-11-22,73.2,64.5,60.0,66.1,62.1,59.1,100,92,77,30.32,30.12,6,0,7,0.01
2013-11-23,66.7,61.5,53.6,66.2,60.4,47.2,100,96,80,30.12,29.99,9,0,9,0.10
2013-11-24,53.6,41.1,29.6,46.8,26.0,17.6,78,56,35,30.52,30.09,15,1,15,0.00
2013-11-25,47.1,37.9,28.8,40.6,24.3,13.7,85,59,36,30.56,30.26,14,0,15,0.00
2013-11-26,63.4,49.6,40.3,60.4,47.9,36.1,100,94,85,30.26,30.06,15,1,15,0.00
2013-11-27,68.1,54.8,37.4,67.2,52.9,33.3,97,93,85,30.16,29.46,18,10,18,0.06
2013-11-28,45.4,36.3,30.5,33.9,28.1,23.1,94,74,50,30.48,30.19,10,3,10,0.00
2013-11-29,53.5,41.9,30.8,42.1,35.4,29.5,96,79,49,30.52,30.46,11,1,11,0.00
2013-11-30,57.5,46.0,34.4,46.1,38.7,30.5,87,76,62,30.53,30.30,5,0,12,0.00